createdAt,value
2023-03-22T00:00:05.920Z,24.23
2023-03-22T00:01:16.094Z,24.83
2023-03-22T00:02:18.136Z,25.08
2023-03-22T00:03:20.069Z,23.20
2023-03-22T00:04:21.819Z,23.50
2023-03-22T00:05:23.552Z,25.38
2023-03-22T00:06:25.713Z,25.20
2023-03-22T00:07:28.099Z,25.27
2023-03-22T00:08:29.856Z,26.27
2023-03-22T00:09:31.909Z,26.08
2023-03-22T00:10:35.939Z,25.63
2023-03-22T00:11:37.642Z,25.38
2023-03-22T00:12:39.371Z,27.02
2023-03-22T00:13:43.124Z,26.13
2023-03-22T00:14:45.660Z,27.13
2023-03-22T00:15:49.287Z,26.08
2023-03-22T00:16:51.154Z,25.55
2023-03-22T00:17:52.852Z,26.63
2023-03-22T00:18:54.623Z,26.38
2023-03-22T00:19:56.344Z,26.85
2023-03-22T00:21:00.634Z,26.00
2023-03-22T00:22:03.817Z,28.88
2023-03-22T00:23:06.687Z,28.02
2023-03-22T00:24:08.571Z,27.95
2023-03-22T00:25:10.898Z,27.65
2023-03-22T00:26:14.435Z,27.95
2023-03-22T00:27:16.181Z,27.50
2023-03-22T00:28:18.217Z,29.77
2023-03-22T00:29:22.678Z,29.77
2023-03-22T00:30:24.423Z,31.30
2023-03-22T00:31:26.208Z,32.35
2023-03-22T00:32:28.009Z,33.22
2023-03-22T00:33:31.196Z,33.58
2023-03-22T00:34:33.765Z,33.40
2023-03-22T00:35:36.099Z,34.70
2023-03-22T00:36:38.052Z,35.63
2023-03-22T00:37:39.850Z,34.40
2023-03-22T00:38:43.193Z,35.03
2023-03-22T00:39:45.789Z,34.58
2023-03-22T00:40:47.543Z,35.20
2023-03-22T00:41:49.245Z,34.63
2023-03-22T00:42:51.276Z,34.08
2023-03-22T00:43:53.033Z,31.48
2023-03-22T00:44:54.777Z,32.17
2023-03-22T00:45:56.624Z,33.58
2023-03-22T00:46:58.913Z,32.30
2023-03-22T00:48:00.851Z,33.78
2023-03-22T00:49:02.565Z,32.80
2023-03-22T00:50:05.736Z,31.92
2023-03-22T00:51:08.561Z,33.92
2023-03-22T00:52:10.448Z,33.95
2023-03-22T00:53:12.148Z,31.90
2023-03-22T00:54:13.899Z,34.47
2023-03-22T00:55:15.759Z,32.80
2023-03-22T00:56:18.867Z,33.42
2023-03-22T00:57:20.973Z,33.55
2023-03-22T00:58:22.829Z,33.90
2023-03-22T00:59:24.579Z,33.80
2023-03-22T01:00:30.523Z,32.90
2023-03-22T01:01:32.724Z,33.85
2023-03-22T01:02:35.086Z,33.30
2023-03-22T01:03:38.806Z,32.13
2023-03-22T01:04:46.541Z,31.58
2023-03-22T01:05:52.330Z,32.40
2023-03-22T01:07:00.749Z,33.13
2023-03-22T01:08:08.487Z,30.95
2023-03-22T01:09:15.044Z,30.52
2023-03-22T01:10:18.392Z,31.90
2023-03-22T01:11:20.095Z,31.23
2023-03-22T01:12:21.855Z,31.30
2023-03-22T01:13:23.535Z,33.40
2023-03-22T01:14:25.977Z,33.15
2023-03-22T01:15:27.852Z,32.08
2023-03-22T01:16:29.604Z,32.45
2023-03-22T01:17:31.359Z,31.48
2023-03-22T01:18:33.101Z,30.92
2023-03-22T01:19:36.644Z,31.30
2023-03-22T01:20:38.864Z,31.05
2023-03-22T01:21:40.743Z,32.30
2023-03-22T01:22:42.573Z,31.50
2023-03-22T01:23:44.302Z,30.77
2023-03-22T01:24:46.078Z,30.75
2023-03-22T01:25:47.777Z,30.50
2023-03-22T01:26:49.746Z,31.67
2023-03-22T01:27:51.442Z,30.23
2023-03-22T01:28:53.175Z,30.65
2023-03-22T01:29:54.875Z,31.40
2023-03-22T01:31:00.664Z,32.40
2023-03-22T01:32:02.619Z,30.98
2023-03-22T01:33:05.830Z,29.60
2023-03-22T01:34:07.666Z,30.75
2023-03-22T01:35:09.997Z,31.67
2023-03-22T01:36:11.798Z,31.42
2023-03-22T01:37:13.501Z,31.42
2023-03-22T01:38:15.459Z,32.25
2023-03-22T01:39:17.150Z,31.70
2023-03-22T01:40:18.869Z,32.13
2023-03-22T01:41:20.691Z,33.03
2023-03-22T01:42:23.506Z,32.92
2023-03-22T01:43:26.805Z,32.65
2023-03-22T01:44:30.712Z,34.35
2023-03-22T01:45:36.988Z,32.17
2023-03-22T01:46:40.020Z,32.95
2023-03-22T01:47:46.687Z,33.63
2023-03-22T01:48:48.766Z,32.10
2023-03-22T01:49:50.620Z,32.97
2023-03-22T01:51:03.201Z,32.40
2023-03-22T01:52:12.918Z,32.83
2023-03-22T01:53:19.159Z,31.08
2023-03-22T01:54:34.361Z,30.48
2023-03-22T01:55:37.558Z,25.83
2023-03-22T01:56:42.561Z,24.52
2023-03-22T01:57:45.492Z,24.00
2023-03-22T01:58:48.780Z,22.25
2023-03-22T01:59:50.729Z,24.65
2023-03-22T02:00:53.954Z,21.83
2023-03-22T02:01:55.895Z,23.70
2023-03-22T02:02:57.705Z,24.63
2023-03-22T02:04:23.546Z,23.15
2023-03-22T02:05:26.531Z,20.23
2023-03-22T02:06:30.063Z,22.33
2023-03-22T02:07:31.914Z,22.17
2023-03-22T02:08:34.132Z,23.27
2023-03-22T02:09:42.438Z,21.92
2023-03-22T02:10:44.421Z,21.75
2023-03-22T02:12:20.747Z,24.77
2023-03-22T02:13:39.014Z,23.90
2023-03-22T02:14:49.498Z,22.08
2023-03-22T02:16:17.587Z,23.23
2023-03-22T02:17:51.402Z,22.17
2023-03-22T02:18:56.001Z,24.05
2023-03-22T02:19:59.218Z,22.33
2023-03-22T02:21:25.363Z,24.85
2023-03-22T02:22:58.489Z,23.67
2023-03-22T02:24:34.914Z,25.25
2023-03-22T02:25:55.442Z,23.67
2023-03-22T02:27:10.863Z,22.70
2023-03-22T02:28:54.066Z,25.30
2023-03-22T02:30:07.790Z,28.08
2023-03-22T02:31:12.398Z,24.30
2023-03-22T02:32:35.237Z,25.50
2023-03-22T02:34:15.812Z,24.65
2023-03-22T02:35:46.241Z,22.40
2023-03-22T02:37:09.417Z,22.48
2023-03-22T02:38:29.534Z,23.75
2023-03-22T02:39:46.280Z,23.83
2023-03-22T02:41:35.980Z,23.52
2023-03-22T02:42:49.396Z,24.83
2023-03-22T02:43:56.869Z,24.73
2023-03-22T02:45:04.629Z,24.65
2023-03-22T02:46:12.361Z,23.75
2023-03-22T02:47:28.670Z,22.88
2023-03-22T02:48:36.157Z,24.13
2023-03-22T02:49:42.814Z,24.38
2023-03-22T02:51:10.128Z,25.50
2023-03-22T02:52:20.456Z,26.35
2023-03-22T02:53:34.703Z,25.95
2023-03-22T02:55:07.779Z,23.63
2023-03-22T02:56:24.510Z,25.98
2023-03-22T02:57:38.037Z,25.27
2023-03-22T02:58:46.022Z,26.65
2023-03-22T02:59:51.341Z,26.27
2023-03-22T03:01:02.776Z,25.08
2023-03-22T03:02:06.219Z,21.23
2023-03-22T03:03:12.586Z,24.63
2023-03-22T03:04:21.366Z,22.48
2023-03-22T03:05:26.207Z,31.10
2023-03-22T03:06:31.921Z,22.25
2023-03-22T03:07:34.826Z,28.58
2023-03-22T03:08:38.462Z,22.83
2023-03-22T03:09:42.968Z,22.90
2023-03-22T03:10:45.860Z,21.27
2023-03-22T03:11:53.169Z,21.85
2023-03-22T03:12:54.856Z,22.65
2023-03-22T03:13:56.932Z,28.73
2023-03-22T03:14:58.702Z,28.85
2023-03-22T03:16:03.032Z,29.73
2023-03-22T03:17:39.023Z,28.95
2023-03-22T03:18:54.037Z,22.48
2023-03-22T03:20:17.847Z,25.02
2023-03-22T03:21:42.528Z,28.50
2023-03-22T03:22:53.602Z,27.75
2023-03-22T03:24:34.076Z,29.40
2023-03-22T03:25:43.713Z,28.73
2023-03-22T03:27:02.671Z,21.58
2023-03-22T03:28:30.356Z,23.80
2023-03-22T03:30:00.128Z,22.77
2023-03-22T03:31:19.237Z,22.73
2023-03-22T03:32:44.207Z,23.42
2023-03-22T03:33:58.668Z,23.02
2023-03-22T03:35:25.588Z,27.95
2023-03-22T03:36:30.107Z,28.40
2023-03-22T03:37:39.907Z,23.15
2023-03-22T03:38:46.866Z,24.23
2023-03-22T03:39:55.053Z,28.25
2023-03-22T03:41:04.547Z,27.88
2023-03-22T03:42:11.457Z,23.00
2023-03-22T03:43:14.435Z,23.10
2023-03-22T03:44:17.988Z,25.83
2023-03-22T03:45:22.265Z,24.38
2023-03-22T03:46:24.913Z,27.52
2023-03-22T03:47:29.034Z,26.50
2023-03-22T03:48:33.578Z,26.58
2023-03-22T03:49:36.070Z,29.60
2023-03-22T03:50:38.542Z,24.88
2023-03-22T03:51:52.479Z,28.33
2023-03-22T03:52:55.522Z,28.23
2023-03-22T03:53:57.264Z,25.60
2023-03-22T03:54:59.182Z,28.60
2023-03-22T03:56:01.012Z,22.00
2023-03-22T03:57:04.047Z,25.60
2023-03-22T03:58:06.076Z,27.67
2023-03-22T03:59:09.314Z,25.67
2023-03-22T04:00:11.922Z,26.50
2023-03-22T04:01:13.619Z,25.52
2023-03-22T04:02:16.832Z,28.00
2023-03-22T04:03:18.776Z,28.23
2023-03-22T04:04:26.992Z,27.23
2023-03-22T04:05:28.850Z,28.25
2023-03-22T04:06:30.573Z,29.13
2023-03-22T04:07:32.271Z,29.35
2023-03-22T04:08:34.036Z,29.88
2023-03-22T04:09:38.180Z,23.75
2023-03-22T04:10:40.226Z,28.55
2023-03-22T04:11:42.433Z,28.55
2023-03-22T04:12:44.264Z,29.80
2023-03-22T04:13:46.022Z,28.13
2023-03-22T04:14:47.861Z,28.40
2023-03-22T04:15:53.833Z,29.38
2023-03-22T04:16:56.306Z,29.85
2023-03-22T04:17:58.104Z,29.67
2023-03-22T04:18:59.824Z,25.10
2023-03-22T04:20:07.295Z,25.33
2023-03-22T04:21:09.063Z,24.48
2023-03-22T04:22:18.587Z,27.17
2023-03-22T04:23:22.660Z,30.67
2023-03-22T04:24:24.425Z,29.17
2023-03-22T04:25:30.069Z,30.25
2023-03-22T04:26:32.426Z,32.10
2023-03-22T04:27:34.141Z,32.70
2023-03-22T04:28:35.823Z,31.42
2023-03-22T04:29:37.522Z,33.33
2023-03-22T04:30:39.702Z,31.70
2023-03-22T04:31:41.740Z,24.95
2023-03-22T04:32:43.438Z,29.88
2023-03-22T04:33:46.989Z,32.33
2023-03-22T04:34:49.830Z,33.10
2023-03-22T04:35:57.185Z,27.65
2023-03-22T04:37:02.563Z,27.42
2023-03-22T04:38:04.331Z,26.73
2023-03-22T04:39:08.850Z,27.95
2023-03-22T04:40:16.681Z,26.35
2023-03-22T04:41:19.070Z,30.25
2023-03-22T04:42:21.056Z,30.60
2023-03-22T04:43:23.046Z,30.77
2023-03-22T04:44:24.740Z,30.92
2023-03-22T04:45:29.361Z,29.90
2023-03-22T04:46:32.462Z,30.15
2023-03-22T04:47:34.264Z,28.00
2023-03-22T04:48:38.076Z,30.27
2023-03-22T04:49:39.892Z,22.90
2023-03-22T04:50:41.927Z,27.90
2023-03-22T04:51:43.860Z,30.80
2023-03-22T04:52:45.603Z,27.65
2023-03-22T04:53:47.412Z,24.95
2023-03-22T04:54:49.152Z,26.35
2023-03-22T04:55:50.844Z,27.98
2023-03-22T04:56:52.804Z,30.00
2023-03-22T04:57:54.912Z,28.40
2023-03-22T04:58:56.673Z,30.00
2023-03-22T04:59:58.361Z,27.38
2023-03-22T05:01:00.160Z,24.83
2023-03-22T05:02:02.025Z,28.77
2023-03-22T05:03:04.398Z,29.77
2023-03-22T05:04:06.795Z,31.15
2023-03-22T05:05:08.674Z,29.83
2023-03-22T05:06:10.696Z,26.80
2023-03-22T05:07:12.405Z,26.30
2023-03-22T05:08:17.613Z,27.25
2023-03-22T05:09:22.116Z,27.50
2023-03-22T05:10:24.948Z,28.17
2023-03-22T05:11:28.117Z,27.63
2023-03-22T05:12:29.804Z,28.45
2023-03-22T05:13:31.778Z,27.52
2023-03-22T05:14:33.516Z,33.55
2023-03-22T05:15:35.273Z,29.02
2023-03-22T05:16:37.467Z,35.20
2023-03-22T05:17:39.217Z,35.15
2023-03-22T05:18:45.896Z,33.97
2023-03-22T05:19:47.908Z,31.17
2023-03-22T05:20:49.633Z,31.30
2023-03-22T05:21:58.035Z,28.00
2023-03-22T05:23:02.724Z,31.50
2023-03-22T05:24:04.791Z,31.65
2023-03-22T05:25:08.442Z,29.42
2023-03-22T05:26:11.436Z,31.17
2023-03-22T05:27:14.403Z,29.63
2023-03-22T05:28:19.645Z,30.40
2023-03-22T05:29:22.344Z,30.15
2023-03-22T05:30:24.300Z,26.48
2023-03-22T05:31:28.809Z,30.27
2023-03-22T05:32:30.611Z,30.65
2023-03-22T05:33:32.441Z,29.10
2023-03-22T05:34:36.180Z,28.42
2023-03-22T05:35:40.206Z,25.38
2023-03-22T05:36:41.944Z,25.30
2023-03-22T05:37:43.685Z,27.55
2023-03-22T05:38:46.715Z,29.15
2023-03-22T05:39:48.439Z,31.50
2023-03-22T05:40:50.238Z,25.70
2023-03-22T05:41:51.981Z,29.83
2023-03-22T05:42:54.392Z,26.48
2023-03-22T05:43:56.405Z,27.23
2023-03-22T05:44:58.139Z,26.80
2023-03-22T05:45:59.882Z,30.92
2023-03-22T05:47:01.667Z,31.17
2023-03-22T05:48:04.085Z,28.67
2023-03-22T05:49:05.958Z,31.00
2023-03-22T05:50:09.729Z,30.75
2023-03-22T05:51:17.551Z,32.38
2023-03-22T05:52:19.342Z,25.17
2023-03-22T05:53:21.043Z,27.13
2023-03-22T05:54:22.759Z,32.05
2023-03-22T05:55:24.549Z,31.58
2023-03-22T05:56:26.705Z,26.52
2023-03-22T05:57:30.188Z,28.50
2023-03-22T05:58:33.985Z,32.85
2023-03-22T05:59:35.790Z,34.15
2023-03-22T06:00:38.585Z,34.85
2023-03-22T06:01:41.137Z,33.92
2023-03-22T06:02:47.569Z,26.95
2023-03-22T06:03:49.663Z,35.95
2023-03-22T06:04:52.319Z,28.25
2023-03-22T06:05:55.698Z,33.13
2023-03-22T06:06:57.493Z,33.30
2023-03-22T06:07:59.688Z,33.50
2023-03-22T06:09:15.877Z,34.05
2023-03-22T06:10:18.544Z,32.88
2023-03-22T06:11:20.420Z,34.78
2023-03-22T06:12:24.826Z,27.33
2023-03-22T06:13:26.595Z,28.52
2023-03-22T06:14:28.355Z,35.83
2023-03-22T06:15:30.129Z,30.05
2023-03-22T06:16:31.892Z,35.83
2023-03-22T06:17:34.088Z,35.55
2023-03-22T06:18:35.893Z,37.22
2023-03-22T06:19:37.602Z,33.63
2023-03-22T06:20:39.911Z,35.50
2023-03-22T06:21:42.392Z,36.70
2023-03-22T06:22:44.184Z,37.72
2023-03-22T06:23:45.962Z,39.65
2023-03-22T06:24:48.063Z,43.72
2023-03-22T06:25:50.024Z,40.47
2023-03-22T06:26:52.005Z,39.92
2023-03-22T06:27:53.860Z,37.25
2023-03-22T06:28:55.568Z,33.35
2023-03-22T06:29:57.354Z,35.80
2023-03-22T06:31:05.546Z,35.58
2023-03-22T06:32:11.020Z,33.83
2023-03-22T06:33:15.965Z,33.00
2023-03-22T06:34:17.652Z,33.17
2023-03-22T06:35:20.223Z,31.35
2023-03-22T06:36:22.004Z,33.50
2023-03-22T06:37:25.767Z,33.28
2023-03-22T06:38:28.209Z,34.92
2023-03-22T06:39:29.908Z,34.90
2023-03-22T06:40:31.692Z,37.33
2023-03-22T06:41:33.366Z,35.35
2023-03-22T06:42:35.081Z,34.80
2023-03-22T06:43:36.803Z,33.67
2023-03-22T06:44:39.432Z,34.03
2023-03-22T06:45:41.164Z,33.30
2023-03-22T06:46:42.993Z,33.67
2023-03-22T06:47:45.395Z,35.70
2023-03-22T06:48:47.136Z,34.83
2023-03-22T06:49:48.989Z,34.25
2023-03-22T06:50:50.801Z,33.92
2023-03-22T06:51:52.579Z,35.10
2023-03-22T06:52:54.318Z,33.47
2023-03-22T06:53:56.208Z,34.10
2023-03-22T06:54:58.063Z,35.42
2023-03-22T06:55:59.820Z,34.42
2023-03-22T06:57:01.534Z,35.38
2023-03-22T06:58:04.639Z,32.20
2023-03-22T06:59:06.384Z,32.42
2023-03-22T07:00:09.212Z,36.13
2023-03-22T07:01:11.199Z,32.90
2023-03-22T07:02:13.710Z,36.25
2023-03-22T07:03:15.475Z,34.25
2023-03-22T07:04:17.222Z,34.70
2023-03-22T07:05:19.198Z,32.88
2023-03-22T07:06:20.986Z,29.90
2023-03-22T07:07:22.702Z,32.03
2023-03-22T07:08:24.382Z,28.88
2023-03-22T07:09:26.987Z,32.42
2023-03-22T07:10:29.393Z,29.67
2023-03-22T07:11:31.273Z,28.02
2023-03-22T07:12:32.972Z,27.40
2023-03-22T07:13:35.011Z,33.33
2023-03-22T07:14:36.768Z,28.20
2023-03-22T07:15:38.570Z,30.98
2023-03-22T07:16:40.274Z,30.98
2023-03-22T07:17:41.975Z,36.30
2023-03-22T07:18:43.661Z,31.70
2023-03-22T07:19:45.422Z,36.33
2023-03-22T07:20:47.229Z,34.25
2023-03-22T07:21:51.824Z,30.05
2023-03-22T07:22:53.858Z,28.33
2023-03-22T07:23:55.712Z,27.70
2023-03-22T07:24:59.993Z,24.65
2023-03-22T07:26:03.048Z,25.90
2023-03-22T07:27:04.835Z,28.33
2023-03-22T07:28:07.135Z,24.67
2023-03-22T07:29:08.865Z,27.15
2023-03-22T07:30:11.478Z,28.10
2023-03-22T07:31:14.312Z,31.05
2023-03-22T07:32:16.646Z,27.50
2023-03-22T07:33:18.402Z,30.40
2023-03-22T07:34:20.218Z,27.92
2023-03-22T07:35:22.016Z,30.45
2023-03-22T07:36:25.786Z,25.15
2023-03-22T07:37:27.515Z,26.58
2023-03-22T07:38:29.411Z,24.45
2023-03-22T07:39:31.289Z,25.30
2023-03-22T07:40:33.075Z,22.30
2023-03-22T07:41:34.819Z,21.30
2023-03-22T07:42:36.545Z,23.70
2023-03-22T07:43:52.338Z,22.35
2023-03-22T07:44:55.008Z,21.63
2023-03-22T07:45:57.238Z,19.67
2023-03-22T07:46:59.002Z,19.75
2023-03-22T07:48:01.153Z,20.00
2023-03-22T07:49:02.862Z,18.50
2023-03-22T07:50:04.891Z,20.83
2023-03-22T07:51:06.688Z,17.15
2023-03-22T07:52:08.446Z,16.55
2023-03-22T07:53:10.627Z,16.52
2023-03-22T07:54:15.794Z,15.38
2023-03-22T07:55:24.546Z,14.35
2023-03-22T07:56:26.277Z,14.50
2023-03-22T07:57:28.028Z,16.95
2023-03-22T07:58:29.988Z,20.02
2023-03-22T07:59:32.180Z,25.45
2023-03-22T08:00:34.199Z,29.05
2023-03-22T08:01:35.957Z,29.10
2023-03-22T08:02:38.973Z,25.10
2023-03-22T08:03:40.753Z,22.90
2023-03-22T08:04:42.457Z,25.27
2023-03-22T08:05:44.346Z,26.40
2023-03-22T08:06:46.628Z,24.67
2023-03-22T08:07:49.461Z,31.23
2023-03-22T08:08:51.924Z,28.15
2023-03-22T08:09:53.639Z,26.80
2023-03-22T08:10:55.408Z,28.67
2023-03-22T08:11:57.108Z,29.45
2023-03-22T08:12:58.812Z,30.85
2023-03-22T08:14:00.746Z,32.78
2023-03-22T08:15:03.237Z,31.63
2023-03-22T08:16:06.132Z,34.63
2023-03-22T08:17:07.967Z,34.10
2023-03-22T08:18:09.681Z,35.33
2023-03-22T08:19:11.816Z,34.40
2023-03-22T08:20:13.784Z,35.35
2023-03-22T08:21:15.838Z,35.10
2023-03-22T08:22:17.669Z,35.05
2023-03-22T08:23:26.363Z,36.53
2023-03-22T08:24:33.598Z,35.58
2023-03-22T08:25:37.194Z,36.85
2023-03-22T08:26:39.588Z,35.70
2023-03-22T08:27:41.298Z,37.20
2023-03-22T08:28:42.985Z,36.80
2023-03-22T08:29:46.781Z,37.22
2023-03-22T08:30:49.442Z,34.92
2023-03-22T08:31:51.944Z,38.08
2023-03-22T08:32:53.740Z,36.70
2023-03-22T08:33:58.842Z,33.58
2023-03-22T08:35:00.687Z,35.63
2023-03-22T08:36:15.024Z,32.80
2023-03-22T08:37:16.765Z,30.35
2023-03-22T08:38:19.710Z,33.75
2023-03-22T08:39:21.512Z,33.33
2023-03-22T08:40:23.437Z,34.30
2023-03-22T08:41:25.318Z,34.97
2023-03-22T08:42:27.176Z,33.85
2023-03-22T08:43:29.258Z,33.88
2023-03-22T08:44:31.136Z,33.72
2023-03-22T08:45:33.113Z,33.15
2023-03-22T08:46:34.895Z,36.47
2023-03-22T08:47:36.696Z,34.40
2023-03-22T08:48:38.560Z,34.05
2023-03-22T08:49:41.036Z,33.28
2023-03-22T08:50:42.794Z,32.08
2023-03-22T08:51:44.776Z,35.38
2023-03-22T08:52:46.462Z,33.83
2023-03-22T08:53:49.525Z,38.30
2023-03-22T08:54:53.491Z,37.10
2023-03-22T08:55:58.185Z,36.97
2023-03-22T08:56:59.940Z,38.10
2023-03-22T08:58:02.126Z,38.75
2023-03-22T08:59:08.756Z,38.95
2023-03-22T09:00:12.441Z,37.40
2023-03-22T09:01:15.228Z,36.08
2023-03-22T09:02:17.479Z,33.97
2023-03-22T09:03:19.323Z,35.20
2023-03-22T09:04:21.185Z,36.03
2023-03-22T09:05:22.903Z,36.58
2023-03-22T09:06:26.249Z,34.35
2023-03-22T09:07:28.387Z,33.00
2023-03-22T09:08:30.741Z,32.55
2023-03-22T09:09:32.437Z,34.78
2023-03-22T09:10:34.750Z,33.20
2023-03-22T09:11:38.118Z,33.17
2023-03-22T09:12:39.897Z,33.45
2023-03-22T09:13:41.749Z,32.75
2023-03-22T09:14:43.811Z,30.48
2023-03-22T09:15:45.991Z,31.38
2023-03-22T09:16:48.329Z,32.80
2023-03-22T09:17:50.144Z,31.98
2023-03-22T09:18:51.865Z,33.15
2023-03-22T09:20:05.865Z,32.55
2023-03-22T09:21:13.195Z,31.25
2023-03-22T09:22:15.048Z,32.17
2023-03-22T09:23:17.029Z,30.63
2023-03-22T09:24:18.919Z,31.73
2023-03-22T09:25:21.821Z,31.67
2023-03-22T09:26:24.331Z,32.17
2023-03-22T09:27:26.547Z,34.03
2023-03-22T09:28:29.939Z,32.53
2023-03-22T09:29:31.832Z,35.92
2023-03-22T09:30:36.879Z,35.45
2023-03-22T09:31:39.040Z,31.83
2023-03-22T09:32:40.937Z,33.10
2023-03-22T09:33:42.927Z,33.95
2023-03-22T09:34:44.661Z,33.30
2023-03-22T09:35:46.483Z,35.10
2023-03-22T09:36:48.362Z,35.15
2023-03-22T09:37:53.394Z,36.33
2023-03-22T09:38:56.433Z,36.13
2023-03-22T09:39:58.279Z,34.53
2023-03-22T09:41:06.622Z,33.40
2023-03-22T09:42:30.993Z,32.78
2023-03-22T09:43:42.221Z,32.28
2023-03-22T09:45:50.321Z,29.98
2023-03-22T09:46:55.214Z,30.90
2023-03-22T09:47:58.377Z,30.88
2023-03-22T09:49:03.104Z,32.28
2023-03-22T09:50:22.983Z,30.67
2023-03-22T09:51:43.440Z,32.83
2023-03-22T09:52:45.330Z,31.30
2023-03-22T09:53:47.056Z,33.22
2023-03-22T09:54:50.048Z,33.55
2023-03-22T09:56:10.765Z,28.60
2023-03-22T09:57:36.490Z,28.73
2023-03-22T09:59:06.072Z,27.92
2023-03-22T10:00:42.763Z,27.98
2023-03-22T10:01:59.993Z,27.88
2023-03-22T10:03:21.385Z,29.33
2023-03-22T10:04:29.050Z,29.23
2023-03-22T10:05:40.487Z,29.58
2023-03-22T10:06:47.677Z,31.77
2023-03-22T10:08:11.317Z,30.15
2023-03-22T10:09:55.933Z,29.33
2023-03-22T10:10:59.227Z,29.30
2023-03-22T10:12:28.676Z,30.00
2023-03-22T10:13:45.325Z,28.77
2023-03-22T10:15:03.586Z,26.45
2023-03-22T10:16:11.672Z,25.95
2023-03-22T10:17:17.750Z,28.30
2023-03-22T10:18:24.961Z,25.25
2023-03-22T10:19:33.354Z,26.25
2023-03-22T10:20:38.938Z,25.90
2023-03-22T10:21:41.886Z,24.98
2023-03-22T10:22:46.742Z,24.42
2023-03-22T10:23:55.718Z,24.70
2023-03-22T10:25:00.187Z,24.27
2023-03-22T10:26:04.299Z,24.00
2023-03-22T10:27:15.955Z,23.92
2023-03-22T10:28:39.507Z,24.20
2023-03-22T10:29:45.848Z,23.23
2023-03-22T10:30:54.620Z,25.00
2023-03-22T10:32:02.313Z,24.40
2023-03-22T10:33:25.308Z,24.15
2023-03-22T10:34:31.319Z,22.80
2023-03-22T10:35:33.266Z,23.85
2023-03-22T10:36:38.212Z,23.10
2023-03-22T10:37:41.424Z,22.95
2023-03-22T10:38:50.307Z,23.33
2023-03-22T10:39:55.369Z,23.35
2023-03-22T10:40:59.775Z,23.35
2023-03-22T10:42:05.896Z,22.27
2023-03-22T10:43:22.360Z,21.15
2023-03-22T10:44:26.394Z,23.35
2023-03-22T10:45:28.836Z,23.30
2023-03-22T10:46:39.686Z,21.85
2023-03-22T10:48:02.972Z,23.00
2023-03-22T10:49:05.753Z,21.67
2023-03-22T10:50:36.681Z,22.08
2023-03-22T10:51:49.402Z,19.77
2023-03-22T10:53:20.278Z,20.63
2023-03-22T10:54:25.751Z,21.20
2023-03-22T10:55:27.876Z,20.67
2023-03-22T10:56:29.617Z,20.70
2023-03-22T10:57:31.476Z,19.92
2023-03-22T10:58:35.107Z,20.58
2023-03-22T10:59:54.005Z,19.23
2023-03-22T11:01:11.134Z,20.75
2023-03-22T11:02:26.963Z,21.30
2023-03-22T11:03:39.173Z,21.95
2023-03-22T11:04:47.368Z,20.90
2023-03-22T11:05:58.817Z,20.60
2023-03-22T11:07:00.561Z,19.65
2023-03-22T11:08:03.675Z,19.67
2023-03-22T11:09:24.489Z,19.83
2023-03-22T11:10:33.354Z,20.00
2023-03-22T11:12:00.668Z,19.65
2023-03-22T11:13:09.114Z,20.00
2023-03-22T11:14:40.021Z,20.58
2023-03-22T11:15:55.320Z,18.02
2023-03-22T11:17:01.078Z,20.63
2023-03-22T11:18:07.154Z,18.17
2023-03-22T11:19:22.720Z,17.40
2023-03-22T11:20:24.583Z,17.10
2023-03-22T11:21:31.885Z,17.88
2023-03-22T11:22:40.410Z,18.40
2023-03-22T11:23:57.526Z,17.90
2023-03-22T11:25:00.017Z,17.17
2023-03-22T11:26:13.406Z,17.80
2023-03-22T11:27:27.708Z,14.32
2023-03-22T11:28:37.185Z,15.05
2023-03-22T11:29:48.025Z,14.63
2023-03-22T11:31:01.928Z,13.82
2023-03-22T11:32:03.834Z,13.27
2023-03-22T11:33:08.422Z,17.27
2023-03-22T11:34:18.357Z,17.70
2023-03-22T11:35:28.281Z,18.67
2023-03-22T11:36:31.366Z,17.27
2023-03-22T11:37:33.050Z,16.13
2023-03-22T11:38:44.222Z,17.75
2023-03-22T11:39:50.907Z,16.13
2023-03-22T11:41:07.048Z,15.00
2023-03-22T11:42:19.505Z,14.15
2023-03-22T11:43:24.909Z,14.27
2023-03-22T11:44:28.652Z,13.93
2023-03-22T11:45:36.939Z,14.18
2023-03-22T11:46:39.788Z,14.60
2023-03-22T11:47:42.054Z,13.25
2023-03-22T11:48:46.708Z,13.20
2023-03-22T11:49:54.663Z,13.63
2023-03-22T11:51:08.396Z,16.13
2023-03-22T11:52:16.429Z,15.30
2023-03-22T11:53:27.137Z,15.68
2023-03-22T11:54:36.198Z,13.80
2023-03-22T11:55:38.184Z,14.48
2023-03-22T11:56:43.607Z,14.45
2023-03-22T11:57:45.889Z,12.40
2023-03-22T11:58:59.630Z,12.90
2023-03-22T12:00:12.060Z,11.75
2023-03-22T12:01:24.589Z,11.23
2023-03-22T12:02:43.775Z,9.32
2023-03-22T12:03:51.661Z,9.82
2023-03-22T12:05:25.049Z,9.88
2023-03-22T12:06:32.015Z,10.25
2023-03-22T12:07:36.644Z,10.52
2023-03-22T12:08:45.083Z,10.65
2023-03-22T12:10:04.512Z,11.00
2023-03-22T12:11:11.190Z,9.43
2023-03-22T12:12:37.010Z,9.98
2023-03-22T12:13:46.939Z,9.27
2023-03-22T12:14:52.620Z,9.73
2023-03-22T12:16:02.308Z,9.88
2023-03-22T12:17:34.285Z,8.88
2023-03-22T12:18:41.547Z,8.13
2023-03-22T12:20:10.417Z,7.40
2023-03-22T12:21:12.267Z,5.63
2023-03-22T12:22:17.636Z,6.47
2023-03-22T12:23:22.347Z,7.82
2023-03-22T12:24:33.351Z,9.40
2023-03-22T12:25:37.697Z,9.02
2023-03-22T12:26:39.903Z,8.75
2023-03-22T12:27:48.415Z,8.82
2023-03-22T12:29:18.354Z,9.90
2023-03-22T12:30:24.401Z,9.35
2023-03-22T12:31:39.436Z,8.95
2023-03-22T12:32:49.773Z,9.07
2023-03-22T12:33:56.846Z,7.93
2023-03-22T12:35:15.969Z,6.95
2023-03-22T12:36:32.054Z,8.10
2023-03-22T12:37:35.969Z,8.38
2023-03-22T12:38:43.601Z,8.60
2023-03-22T12:39:54.137Z,8.07
2023-03-22T12:41:00.813Z,7.80
2023-03-22T12:42:23.473Z,7.95
2023-03-22T12:43:43.640Z,7.78
2023-03-22T12:44:52.765Z,7.00
2023-03-22T12:46:06.513Z,8.30
2023-03-22T12:47:34.008Z,9.75
2023-03-22T12:48:47.313Z,9.75
2023-03-22T12:49:57.916Z,8.30
2023-03-22T12:51:07.023Z,7.85
2023-03-22T12:52:18.053Z,8.27
2023-03-22T12:53:22.881Z,6.82
2023-03-22T12:54:26.249Z,7.25
2023-03-22T12:55:32.335Z,6.82
2023-03-22T12:56:40.315Z,6.72
2023-03-22T12:57:42.133Z,6.10
2023-03-22T12:58:49.089Z,5.75
2023-03-22T12:59:53.150Z,5.43
2023-03-22T13:01:19.119Z,3.75
2023-03-22T13:02:33.335Z,4.40
2023-03-22T13:03:44.681Z,4.75
2023-03-22T13:04:54.942Z,5.00
2023-03-22T13:06:28.110Z,4.65
2023-03-22T13:07:47.686Z,5.25
2023-03-22T13:09:17.975Z,3.33
2023-03-22T13:10:31.935Z,3.35
2023-03-22T13:11:33.817Z,4.10
2023-03-22T13:12:35.644Z,5.00
2023-03-22T13:13:46.332Z,4.65
2023-03-22T13:14:51.399Z,3.60
2023-03-22T13:15:55.945Z,2.80
2023-03-22T13:17:00.875Z,2.80
2023-03-22T13:18:03.556Z,3.40
2023-03-22T13:19:26.725Z,3.15
2023-03-22T13:20:34.090Z,3.97
2023-03-22T13:21:37.724Z,3.97
2023-03-22T13:22:39.474Z,2.40
2023-03-22T13:24:01.243Z,2.97
2023-03-22T13:25:17.079Z,3.40
2023-03-22T13:26:20.736Z,6.45
2023-03-22T13:27:23.717Z,11.50
2023-03-22T13:28:27.964Z,13.65
2023-03-22T13:29:39.194Z,5.57
2023-03-22T13:31:59.160Z,4.13
2023-03-22T13:33:09.929Z,3.85
2023-03-22T13:34:31.525Z,3.40
2023-03-22T13:35:59.098Z,3.25
2023-03-22T13:37:03.677Z,3.80
2023-03-22T13:38:16.255Z,4.10
2023-03-22T13:39:18.363Z,3.80
2023-03-22T13:41:06.202Z,4.10
2023-03-22T13:42:18.177Z,3.60
2023-03-22T13:43:31.245Z,4.43
2023-03-22T13:44:39.790Z,3.40
2023-03-22T13:46:31.311Z,3.40
2023-03-22T13:47:37.661Z,3.83
2023-03-22T13:48:48.630Z,3.25
2023-03-22T13:49:54.831Z,3.13
2023-03-22T13:50:58.530Z,3.05
2023-03-22T13:52:02.226Z,3.20
2023-03-22T13:53:15.847Z,3.80
2023-03-22T13:54:24.717Z,3.35
2023-03-22T13:55:38.226Z,3.60
2023-03-22T13:56:43.189Z,3.55
2023-03-22T13:57:58.904Z,4.05
2023-03-22T13:59:04.331Z,3.55
2023-03-22T14:00:20.562Z,3.72
2023-03-22T14:01:35.350Z,3.80
2023-03-22T14:02:41.949Z,3.50
2023-03-22T14:03:47.756Z,3.60
2023-03-22T14:04:56.227Z,3.65
2023-03-22T14:06:10.145Z,3.50
2023-03-22T14:07:23.941Z,3.67
2023-03-22T14:08:28.562Z,3.22
2023-03-22T14:09:39.467Z,3.17
2023-03-22T14:10:49.082Z,3.13
2023-03-22T14:12:00.422Z,4.05
2023-03-22T14:13:11.761Z,6.00
2023-03-22T14:14:20.800Z,6.65
2023-03-22T14:15:36.354Z,6.50
2023-03-22T14:16:48.981Z,6.47
2023-03-22T14:18:21.409Z,6.63
2023-03-22T14:19:25.835Z,7.20
2023-03-22T14:20:34.485Z,7.10
2023-03-22T14:21:43.774Z,7.70
